Buoy 52514

sailwx.info

Track history (hours):
 
Tides and Currents Weather Stations Pressure Air Temp Water Temp Dewpoint Dewpoint Depression Visibility Wind Speed Wind Dir Waves Ship Positions

Drifting buoy 52514

Last reported at 2014-Sep-03 03:00 UTC. Time now 2014-Sep-03 04:54 UTC.
Position N 28°15' E 133°35'.

Water temperature 29.8 ° C

Date/timePositionNaut miles runAvg speedWind from/ knotsBaromVisibWave heightAir tempDewpointWater temp
2014-Sep-03 03:00N 28°15' E 133°35'3 1.3 29.8
2014-Sep-03 01:00N 28°17' E 133°33'2 0.5 29.4
2014-Sep-02 21:00N 28°18' E 133°31'0 0.1 29.0
2014-Sep-02 20:00N 28°18' E 133°31'0 0.4 29.0
2014-Sep-02 19:00N 28°18' E 133°30'0 0.4 29.1
2014-Sep-02 18:00N 28°18' E 133°30'0 0.2 29.1
2014-Sep-02 16:00N 28°19' E 133°30'0 0.2 29.1
2014-Sep-02 15:00N 28°19' E 133°30'2 0.5 29.1
2014-Sep-02 12:00N 28°20' E 133°31'0 0.0 29.3
2014-Sep-02 11:00N 28°20' E 133°31'3 1.4 29.5
2014-Sep-02 09:00N 28°23' E 133°32'0 0.0 29.7
2014-Sep-02 08:00N 28°23' E 133°32'1 1.4 30.0
2014-Sep-02 07:00N 28°24' E 133°32'0 0.5 30.2
2014-Sep-02 06:00N 28°25' E 133°32'0 0.0 30.9
2014-Sep-02 05:00N 28°25' E 133°32'1 1.3 30.8
2014-Sep-02 04:00N 28°26' E 133°31'2 0.8 30.8
2014-Sep-02 02:00N 28°27' E 133°30'1 0.2 29.8
2014-Sep-01 20:00N 28°28' E 133°28'1 1.0 29.0
2014-Sep-01 19:00N 28°28' E 133°27'0 0.0 29.0
2014-Sep-01 18:00N 28°28' E 133°27'0 0.2 29.0
2014-Sep-01 16:00N 28°28' E 133°27'0 0.1 29.0
2014-Sep-01 12:00N 28°29' E 133°27'2 1.6 29.1
2014-Sep-01 11:00N 28°30' E 133°28'2 0.7 29.1
2014-Sep-01 08:00N 28°32' E 133°29'2 0.8 29.2
2014-Sep-01 06:00N 28°33' E 133°28'0 0.0 29.4
2014-Sep-01 04:00N 28°33' E 133°28'0 0.0 29.2
2014-Sep-01 03:00N 28°33' E 133°28'2 0.8 29.3
2014-Sep-01 01:00N 28°35' E 133°27'1 1.1 29.1
2014-Sep-01 00:00N 28°36' E 133°26'0 0.3 29.0
2014-Aug-31 23:00N 28°36' E 133°26'1 0.6 29.0
2014-Aug-31 21:00N 28°36' E 133°25'1 0.5 28.9
2014-Aug-31 19:00N 28°37' E 133°24'0 0.5 28.9
2014-Aug-31 18:00N 28°37' E 133°23'1 0.3 28.9
2014-Aug-31 16:00N 28°37' E 133°23'0 0.0 29.0
2014-Aug-31 15:00N 28°37' E 133°23'0 0.1 29.0
2014-Aug-31 13:00N 28°37' E 133°23'0 0.0 29.1
2014-Aug-31 12:00N 28°37' E 133°23'5 0.8 29.1
2014-Aug-31 06:00N 28°41' E 133°25'0 0.2 29.2
2014-Aug-31 04:00N 28°42' E 133°25'2 2.0 29.1
2014-Aug-31 03:00N 28°42' E 133°23'0 0.0 29.1
2014-Aug-31 02:00N 28°42' E 133°23'3 0.6 29.1
2014-Aug-30 21:00N 28°45' E 133°21'0 0.2 29.1
2014-Aug-30 20:00N 28°45' E 133°21'2 0.5 29.0
2014-Aug-30 17:00N 28°45' E 133°19'1 0.2 29.1
2014-Aug-30 12:00N 28°45' E 133°18'0 0.5 29.2
2014-Aug-30 11:00N 28°45' E 133°19'2 0.6 29.3
2014-Aug-30 08:00N 28°46' E 133°19'1 1.4 29.4
2014-Aug-30 07:00N 28°48' E 133°20'0 0.0 29.4
2014-Aug-30 04:00N 28°48' E 133°20'0 0.0 29.4
2014-Aug-30 03:00N 28°48' E 133°20'2 2.2 29.4
2014-Aug-30 02:00N 28°49' E 133°18'2 0.4 29.4
2014-Aug-29 22:00N 28°50' E 133°17'1 1.0 29.3
2014-Aug-29 21:00N 28°51' E 133°17'0 0.5 29.3
2014-Aug-29 20:00N 28°51' E 133°16'1 0.3 29.3
2014-Aug-29 18:00N 28°51' E 133°16'2 0.4 29.4
2014-Aug-29 13:00N 28°53' E 133°14'1 0.3 29.6
2014-Aug-29 09:00N 28°54' E 133°14'1 0.5 29.8
2014-Aug-29 07:00N 28°55' E 133°15'3 0.9 29.8
2014-Aug-29 04:00N 28°55' E 133°12'0 0.0 29.6
2014-Aug-29 03:00N 28°55' E 133°12'2 0.9 29.5
2014-Aug-29 01:00N 28°56' E 133°14'1 0.8 29.3
2014-Aug-29 00:00N 28°56' E 133°13'1 0.4 29.3
2014-Aug-28 22:00N 28°56' E 133°14'1 1.1 29.3
2014-Aug-28 21:00N 28°57' E 133°14'0 0.2 29.3
2014-Aug-28 19:00N 28°57' E 133°14'1 0.9 29.3
2014-Aug-28 18:00N 28°58' E 133°13'0 0.0 29.4
2014-Aug-28 17:00N 28°58' E 133°13'2 0.5 29.4
2014-Aug-28 13:00N 28°59' E 133°11'0 0.2 29.5
2014-Aug-28 12:00N 28°59' E 133°11'1 0.3 29.6
2014-Aug-28 08:00N 28°60' E 133°12'1 1.3 29.6
2014-Aug-28 07:00N 29°01' E 133°12'0 0.0 29.7
2014-Aug-28 06:00N 29°01' E 133°12'0 0.2 29.7
2014-Aug-28 04:00N 29°01' E 133°12'1 0.9 29.7
2014-Aug-28 03:00N 29°01' E 133°11'2 0.2 29.6
2014-Aug-27 19:00N 29°03' E 133°11'1 0.3 29.4
2014-Aug-27 17:00N 29°03' E 133°11'1 0.3 29.5
2014-Aug-27 13:00N 29°05' E 133°10'0 0.0 29.6
2014-Aug-27 12:00N 29°05' E 133°10'0 0.4 29.6
2014-Aug-27 11:00N 29°05' E 133°11'3 0.9 29.6
2014-Aug-27 08:00N 29°07' E 133°12'0 0.0 29.8
2014-Aug-27 07:00N 29°07' E 133°12'0 0.0 29.9
2014-Aug-27 05:00N 29°07' E 133°12'1 1.0 29.7
2014-Aug-27 04:00N 29°08' E 133°12'1 0.6 29.8
2014-Aug-27 03:00N 29°08' E 133°11'1 0.4 29.6
2014-Aug-27 01:00N 29°08' E 133°12'1 0.5 29.3
2014-Aug-26 22:00N 29°07' E 133°10'0 0.1 29.3
2014-Aug-26 21:00N 29°07' E 133°10'0 0.4 29.3
2014-Aug-26 20:00N 29°07' E 133°11'1 1.4 29.3
2014-Aug-26 19:00N 29°08' E 133°12'0 0.0 29.3
2014-Aug-26 18:00N 29°08' E 133°12'0 0.0 29.3
2014-Aug-26 17:00N 29°08' E 133°12'1 1.0 29.3
2014-Aug-26 16:00N 29°09' E 133°12'0 0.0 29.4
2014-Aug-26 15:00N 29°09' E 133°12'2 0.5 29.4
2014-Aug-26 12:00N 29°10' E 133°12'1 0.5 29.5
2014-Aug-26 10:00N 29°11' E 133°12'2 0.8 29.5
2014-Aug-26 08:00N 29°12' E 133°11'0 0.4 29.5
2014-Aug-26 07:00N 29°12' E 133°11'1 0.7 29.5
2014-Aug-26 06:00N 29°13' E 133°11'2 1.6 29.5
2014-Aug-26 05:00N 29°14' E 133°09'2 0.8 29.5
2014-Aug-26 03:00N 29°14' E 133°07'0 0.3 29.5
2014-Aug-26 02:00N 29°14' E 133°07'0 0.3 29.4
2014-Aug-26 01:00N 29°14' E 133°07'1 0.2 29.4
2014-Aug-25 21:00N 29°14' E 133°06'1 1.3 29.3
2014-Aug-25 20:00N 29°15' E 133°06'1 0.4 29.3
2014-Aug-25 16:00N 29°16' E 133°05'0 0.0 29.4
2014-Aug-25 15:00N 29°16' E 133°05'2 0.5 29.4
2014-Aug-25 12:00N 29°17' E 133°04'1 0.7 29.5
2014-Aug-25 11:00N 29°18' E 133°04'4 1.8 29.5
2014-Aug-25 09:00N 29°20' E 133°01'1 0.7 29.5
2014-Aug-25 07:00N 29°21' E 132°60'0 0.4 29.6
2014-Aug-25 06:00N 29°21' E 132°59'2 0.7 29.5
2014-Aug-25 03:00N 29°22' E 132°57'5 0.9 29.4
2014-Aug-24 22:00N 29°25' E 132°53'0 0.0 29.1
2014-Aug-24 21:00N 29°25' E 132°53'2 1.8 29.1
2014-Aug-24 20:00N 29°26' E 132°52'2 1.9 29.1
2014-Aug-24 19:00N 29°27' E 132°51'1 0.7 29.1
2014-Aug-24 18:00N 29°28' E 132°50'7 2.4 29.2
2014-Aug-24 15:00N 29°32' E 132°43'0 0.0 29.3
2014-Aug-24 13:00N 29°32' E 132°43'3 2.6 29.3
2014-Aug-24 12:00N 29°34' E 132°41'0 0.0 29.3
2014-Aug-24 11:00N 29°34' E 132°41'10 3.2 29.3
2014-Aug-24 08:00N 29°41' E 132°34'0 0.0 29.6
2014-Aug-24 06:00N 29°41' E 132°34'4 4.5 29.7
2014-Aug-24 05:00N 29°45' E 132°32'0 0.0 29.7
2014-Aug-24 04:00N 29°45' E 132°32'   29.3
Track history (hours):
 
Tides and Currents Weather Stations Pressure Air Temp Water Temp Dewpoint Dewpoint Depression Visibility Wind Speed Wind Dir Waves Ship Positions

Drifting buoy 52514

Last reported at 2014-Sep-03 03:00 UTC. Time now 2014-Sep-03 04:54 UTC.
Position N 28°15' E 133°35'.

Water temperature 29.8 ° C

Date/timePositionNaut miles runAvg speedWind from/ knotsBaromVisibWave heightAir tempDewpointWater temp
2014-Sep-03 03:00N 28°15' E 133°35'3 1.3 29.8
2014-Sep-03 01:00N 28°17' E 133°33'2 0.5 29.4
2014-Sep-02 21:00N 28°18' E 133°31'0 0.1 29.0
2014-Sep-02 20:00N 28°18' E 133°31'0 0.4 29.0
2014-Sep-02 19:00N 28°18' E 133°30'0 0.4 29.1
2014-Sep-02 18:00N 28°18' E 133°30'0 0.2 29.1
2014-Sep-02 16:00N 28°19' E 133°30'0 0.2 29.1
2014-Sep-02 15:00N 28°19' E 133°30'2 0.5 29.1
2014-Sep-02 12:00N 28°20' E 133°31'0 0.0 29.3
2014-Sep-02 11:00N 28°20' E 133°31'3 1.4 29.5
2014-Sep-02 09:00N 28°23' E 133°32'0 0.0 29.7
2014-Sep-02 08:00N 28°23' E 133°32'1 1.4 30.0
2014-Sep-02 07:00N 28°24' E 133°32'0 0.5 30.2
2014-Sep-02 06:00N 28°25' E 133°32'0 0.0 30.9
2014-Sep-02 05:00N 28°25' E 133°32'1 1.3 30.8
2014-Sep-02 04:00N 28°26' E 133°31'2 0.8 30.8
2014-Sep-02 02:00N 28°27' E 133°30'1 0.2 29.8
2014-Sep-01 20:00N 28°28' E 133°28'1 1.0 29.0
2014-Sep-01 19:00N 28°28' E 133°27'0 0.0 29.0
2014-Sep-01 18:00N 28°28' E 133°27'0 0.2 29.0
2014-Sep-01 16:00N 28°28' E 133°27'0 0.1 29.0
2014-Sep-01 12:00N 28°29' E 133°27'2 1.6 29.1
2014-Sep-01 11:00N 28°30' E 133°28'2 0.7 29.1
2014-Sep-01 08:00N 28°32' E 133°29'2 0.8 29.2
2014-Sep-01 06:00N 28°33' E 133°28'0 0.0 29.4
2014-Sep-01 04:00N 28°33' E 133°28'0 0.0 29.2
2014-Sep-01 03:00N 28°33' E 133°28'2 0.8 29.3
2014-Sep-01 01:00N 28°35' E 133°27'1 1.1 29.1
2014-Sep-01 00:00N 28°36' E 133°26'0 0.3 29.0
2014-Aug-31 23:00N 28°36' E 133°26'1 0.6 29.0
2014-Aug-31 21:00N 28°36' E 133°25'1 0.5 28.9
2014-Aug-31 19:00N 28°37' E 133°24'0 0.5 28.9
2014-Aug-31 18:00N 28°37' E 133°23'1 0.3 28.9
2014-Aug-31 16:00N 28°37' E 133°23'0 0.0 29.0
2014-Aug-31 15:00N 28°37' E 133°23'0 0.1 29.0
2014-Aug-31 13:00N 28°37' E 133°23'0 0.0 29.1
2014-Aug-31 12:00N 28°37' E 133°23'5 0.8 29.1
2014-Aug-31 06:00N 28°41' E 133°25'0 0.2 29.2
2014-Aug-31 04:00N 28°42' E 133°25'2 2.0 29.1
2014-Aug-31 03:00N 28°42' E 133°23'0 0.0 29.1
2014-Aug-31 02:00N 28°42' E 133°23'3 0.6 29.1
2014-Aug-30 21:00N 28°45' E 133°21'0 0.2 29.1
2014-Aug-30 20:00N 28°45' E 133°21'2 0.5 29.0
2014-Aug-30 17:00N 28°45' E 133°19'1 0.2 29.1
2014-Aug-30 12:00N 28°45' E 133°18'0 0.5 29.2
2014-Aug-30 11:00N 28°45' E 133°19'2 0.6 29.3
2014-Aug-30 08:00N 28°46' E 133°19'1 1.4 29.4
2014-Aug-30 07:00N 28°48' E 133°20'0 0.0 29.4
2014-Aug-30 04:00N 28°48' E 133°20'0 0.0 29.4
2014-Aug-30 03:00N 28°48' E 133°20'2 2.2 29.4
2014-Aug-30 02:00N 28°49' E 133°18'2 0.4 29.4
2014-Aug-29 22:00N 28°50' E 133°17'1 1.0 29.3
2014-Aug-29 21:00N 28°51' E 133°17'0 0.5 29.3
2014-Aug-29 20:00N 28°51' E 133°16'1 0.3 29.3
2014-Aug-29 18:00N 28°51' E 133°16'2 0.4 29.4
2014-Aug-29 13:00N 28°53' E 133°14'1 0.3 29.6
2014-Aug-29 09:00N 28°54' E 133°14'1 0.5 29.8
2014-Aug-29 07:00N 28°55' E 133°15'3 0.9 29.8
2014-Aug-29 04:00N 28°55' E 133°12'0 0.0 29.6
2014-Aug-29 03:00N 28°55' E 133°12'2 0.9 29.5
2014-Aug-29 01:00N 28°56' E 133°14'1 0.8 29.3
2014-Aug-29 00:00N 28°56' E 133°13'1 0.4 29.3
2014-Aug-28 22:00N 28°56' E 133°14'1 1.1 29.3
2014-Aug-28 21:00N 28°57' E 133°14'0 0.2 29.3
2014-Aug-28 19:00N 28°57' E 133°14'1 0.9 29.3
2014-Aug-28 18:00N 28°58' E 133°13'0 0.0 29.4
2014-Aug-28 17:00N 28°58' E 133°13'2 0.5 29.4
2014-Aug-28 13:00N 28°59' E 133°11'0 0.2 29.5
2014-Aug-28 12:00N 28°59' E 133°11'1 0.3 29.6
2014-Aug-28 08:00N 28°60' E 133°12'1 1.3 29.6
2014-Aug-28 07:00N 29°01' E 133°12'0 0.0 29.7
2014-Aug-28 06:00N 29°01' E 133°12'0 0.2 29.7
2014-Aug-28 04:00N 29°01' E 133°12'1 0.9 29.7
2014-Aug-28 03:00N 29°01' E 133°11'2 0.2 29.6
2014-Aug-27 19:00N 29°03' E 133°11'1 0.3 29.4
2014-Aug-27 17:00N 29°03' E 133°11'1 0.3 29.5
2014-Aug-27 13:00N 29°05' E 133°10'0 0.0 29.6
2014-Aug-27 12:00N 29°05' E 133°10'0 0.4 29.6
2014-Aug-27 11:00N 29°05' E 133°11'3 0.9 29.6
2014-Aug-27 08:00N 29°07' E 133°12'0 0.0 29.8
2014-Aug-27 07:00N 29°07' E 133°12'0 0.0 29.9
2014-Aug-27 05:00N 29°07' E 133°12'1 1.0 29.7
2014-Aug-27 04:00N 29°08' E 133°12'1 0.6 29.8
2014-Aug-27 03:00N 29°08' E 133°11'1 0.4 29.6
2014-Aug-27 01:00N 29°08' E 133°12'1 0.5 29.3
2014-Aug-26 22:00N 29°07' E 133°10'0 0.1 29.3
2014-Aug-26 21:00N 29°07' E 133°10'0 0.4 29.3
2014-Aug-26 20:00N 29°07' E 133°11'1 1.4 29.3
2014-Aug-26 19:00N 29°08' E 133°12'0 0.0 29.3
2014-Aug-26 18:00N 29°08' E 133°12'0 0.0 29.3
2014-Aug-26 17:00N 29°08' E 133°12'1 1.0 29.3
2014-Aug-26 16:00N 29°09' E 133°12'0 0.0 29.4
2014-Aug-26 15:00N 29°09' E 133°12'2 0.5 29.4
2014-Aug-26 12:00N 29°10' E 133°12'1 0.5 29.5
2014-Aug-26 10:00N 29°11' E 133°12'2 0.8 29.5
2014-Aug-26 08:00N 29°12' E 133°11'0 0.4 29.5
2014-Aug-26 07:00N 29°12' E 133°11'1 0.7 29.5
2014-Aug-26 06:00N 29°13' E 133°11'2 1.6 29.5
2014-Aug-26 05:00N 29°14' E 133°09'2 0.8 29.5
2014-Aug-26 03:00N 29°14' E 133°07'0 0.3 29.5
2014-Aug-26 02:00N 29°14' E 133°07'0 0.3 29.4
2014-Aug-26 01:00N 29°14' E 133°07'1 0.2 29.4
2014-Aug-25 21:00N 29°14' E 133°06'1 1.3 29.3
2014-Aug-25 20:00N 29°15' E 133°06'1 0.4 29.3
2014-Aug-25 16:00N 29°16' E 133°05'0 0.0 29.4
2014-Aug-25 15:00N 29°16' E 133°05'2 0.5 29.4
2014-Aug-25 12:00N 29°17' E 133°04'1 0.7 29.5
2014-Aug-25 11:00N 29°18' E 133°04'4 1.8 29.5
2014-Aug-25 09:00N 29°20' E 133°01'1 0.7 29.5
2014-Aug-25 07:00N 29°21' E 132°60'0 0.4 29.6
2014-Aug-25 06:00N 29°21' E 132°59'2 0.7 29.5
2014-Aug-25 03:00N 29°22' E 132°57'5 0.9 29.4
2014-Aug-24 22:00N 29°25' E 132°53'0 0.0 29.1
2014-Aug-24 21:00N 29°25' E 132°53'2 1.8 29.1
2014-Aug-24 20:00N 29°26' E 132°52'2 1.9 29.1
2014-Aug-24 19:00N 29°27' E 132°51'1 0.7 29.1
2014-Aug-24 18:00N 29°28' E 132°50'7 2.4 29.2
2014-Aug-24 15:00N 29°32' E 132°43'0 0.0 29.3
2014-Aug-24 13:00N 29°32' E 132°43'3 2.6 29.3
2014-Aug-24 12:00N 29°34' E 132°41'0 0.0 29.3
2014-Aug-24 11:00N 29°34' E 132°41'10 3.2 29.3
2014-Aug-24 08:00N 29°41' E 132°34'0 0.0 29.6
2014-Aug-24 06:00N 29°41' E 132°34'4 4.5 29.7
2014-Aug-24 05:00N 29°45' E 132°32'0 0.0 29.7
2014-Aug-24 04:00N 29°45' E 132°32'   29.3

Dump ship's entire track history